Time;durP1;ratioP1;P1;durP2;ratioP2;P2;SDS_P1;SDS_P2;PMS_P1;PMS_P2;Temp;Humidity;BMP_temperature;BMP_pressure;BME280_temperature;BME280_humidity;BME280_pressure;Samples;Min_cycle;Max_cycle;Signal;HPM_P1;HPM_P2
2023/01/26 00:00:51;;;;;;;36.83;21.10;;;2.70;99.90;;;;;;5052610;28;20278;-80
2023/01/26 00:03:18;;;;;;;30.92;15.75;;;2.80;99.90;;;;;;5034863;28;20645;-80
2023/01/26 00:05:44;;;;;;;31.65;17.05;;;2.70;99.90;;;;;;5035278;28;20590;-80
2023/01/26 00:08:11;;;;;;;36.63;17.17;;;2.70;99.90;;;;;;5018611;28;20255;-79
2023/01/26 00:10:38;;;;;;;38.63;20.90;;;2.70;99.90;;;;;;5052553;28;20212;-80
2023/01/26 00:13:04;;;;;;;35.63;17.88;;;2.70;99.90;;;;;;5053018;28;20173;-80
2023/01/26 00:15:36;;;;;;;41.25;19.05;;;2.70;99.90;;;;;;5018732;28;20169;-79
2023/01/26 00:18:02;;;;;;;28.48;17.48;;;2.70;99.90;;;;;;5037835;28;20261;-79
2023/01/26 00:20:29;;;;;;;36.30;19.63;;;2.60;99.90;;;;;;5053318;28;20192;-79
2023/01/26 00:22:55;;;;;;;32.50;17.38;;;2.60;99.90;;;;;;5034674;28;20235;-80
2023/01/26 00:25:21;;;;;;;36.23;18.53;;;2.60;99.90;;;;;;5035638;28;20637;-81
2023/01/26 00:27:46;;;;;;;41.38;18.45;;;2.60;99.90;;;;;;5055824;28;20528;-80
2023/01/26 00:30:13;;;;;;;36.85;20.33;;;2.60;99.90;;;;;;5034966;28;20571;-80
2023/01/26 00:32:38;;;;;;;39.28;17.90;;;2.60;99.90;;;;;;5034587;28;20172;-80
2023/01/26 00:35:05;;;;;;;31.63;16.40;;;2.60;99.90;;;;;;5022819;28;20173;-80
2023/01/26 00:37:31;;;;;;;41.05;19.17;;;2.60;99.90;;;;;;5026735;28;20169;-80
2023/01/26 00:39:56;;;;;;;33.97;16.83;;;2.60;99.90;;;;;;5068068;28;20252;-80
2023/01/26 00:42:23;;;;;;;37.28;19.13;;;2.70;99.90;;;;;;5031261;28;20216;-80
2023/01/26 00:44:49;;;;;;;33.33;18.10;;;2.70;99.90;;;;;;5059243;28;20169;-79
2023/01/26 00:47:16;;;;;;;29.75;16.25;;;2.70;99.90;;;;;;5055078;28;20939;-80
2023/01/26 00:49:42;;;;;;;32.97;17.10;;;2.70;99.90;;;;;;5002031;28;20209;-80
2023/01/26 00:52:08;;;;;;;39.38;19.30;;;2.70;99.90;;;;;;5017378;28;20176;-80
2023/01/26 00:54:34;;;;;;;32.20;18.77;;;2.70;99.90;;;;;;5052328;28;20176;-80
2023/01/26 00:57:00;;;;;;;42.80;19.90;;;2.70;99.90;;;;;;5036562;28;20169;-80
2023/01/26 00:59:26;;;;;;;35.67;18.90;;;2.70;99.90;;;;;;5017991;28;20268;-80
2023/01/26 01:01:55;;;;;;;36.00;17.53;;;2.70;99.90;;;;;;5034515;28;20191;-80
2023/01/26 01:04:21;;;;;;;29.88;16.25;;;2.70;99.90;;;;;;5052809;28;20180;-80
2023/01/26 01:06:47;;;;;;;30.97;16.20;;;2.70;99.90;;;;;;5053077;28;20636;-80
2023/01/26 01:09:13;;;;;;;32.67;15.90;;;2.70;99.90;;;;;;5035502;28;20208;-80
2023/01/26 01:11:38;;;;;;;38.57;18.57;;;2.70;99.90;;;;;;5016689;28;20653;-80
2023/01/26 01:14:04;;;;;;;41.10;17.60;;;2.70;99.90;;;;;;5034180;28;20535;-79
2023/01/26 01:16:30;;;;;;;39.30;20.67;;;2.70;99.90;;;;;;5033695;28;20184;-79
2023/01/26 01:18:56;;;;;;;40.22;20.75;;;2.70;99.90;;;;;;5017416;28;20172;-79
2023/01/26 01:21:23;;;;;;;43.77;21.27;;;2.70;99.90;;;;;;5033296;28;20668;-79
2023/01/26 01:23:49;;;;;;;41.05;20.02;;;2.70;99.90;;;;;;5033980;28;20649;-79
2023/01/26 01:26:16;;;;;;;36.30;19.10;;;2.70;99.90;;;;;;5033541;28;20256;-79
2023/01/26 01:28:43;;;;;;;39.47;19.83;;;2.70;99.90;;;;;;5033398;28;20820;-80
2023/01/26 01:31:14;;;;;;;36.75;18.67;;;2.70;99.90;;;;;;5032858;28;20250;-80
2023/01/26 01:33:40;;;;;;;29.83;15.70;;;2.70;99.90;;;;;;5056488;28;20582;-79
2023/01/26 01:36:09;;;;;;;31.02;17.38;;;2.70;99.90;;;;;;5034141;28;20181;-79
2023/01/26 01:38:35;;;;;;;29.90;15.82;;;2.70;99.90;;;;;;5017309;28;20234;-79
2023/01/26 01:41:02;;;;;;;33.03;16.48;;;2.70;99.90;;;;;;5033464;28;20280;-80
2023/01/26 01:43:28;;;;;;;34.72;18.05;;;2.70;99.90;;;;;;5051389;28;20204;-80
2023/01/26 01:45:54;;;;;;;35.55;17.77;;;2.70;99.90;;;;;;5051725;28;20219;-80
2023/01/26 01:48:39;;;;;;;33.47;17.10;;;2.70;99.90;;;;;;5033599;28;20687;-80
2023/01/26 01:51:30;;;;;;;35.65;16.20;;;2.60;99.90;;;;;;5050066;28;20283;-79
2023/01/26 01:53:59;;;;;;;30.50;16.80;;;2.60;99.90;;;;;;5033609;28;20176;-79
2023/01/26 01:56:28;;;;;;;34.83;17.95;;;2.60;99.90;;;;;;5033244;28;20330;-79
2023/01/26 01:58:58;;;;;;;35.97;18.10;;;2.60;99.90;;;;;;5033204;28;20513;-79
2023/01/26 02:01:25;;;;;;;32.58;19.45;;;2.60;99.90;;;;;;5026488;28;20213;-79
2023/01/26 02:03:55;;;;;;;33.08;17.63;;;2.60;99.90;;;;;;5020360;28;20232;-79
2023/01/26 02:06:39;;;;;;;34.58;18.38;;;2.60;99.90;;;;;;5026644;28;20713;-79
2023/01/26 02:13:00;;;;;;;36.92;17.52;;;2.60;99.90;;;;;;5030843;28;20604;-79
2023/01/26 02:15:26;;;;;;;33.85;16.25;;;2.60;99.90;;;;;;5013349;28;20984;-79
2023/01/26 02:17:53;;;;;;;35.37;16.97;;;2.60;99.90;;;;;;5013132;28;20177;-80
2023/01/26 02:20:42;;;;;;;32.47;16.90;;;2.60;99.90;;;;;;5012952;28;20606;-79
2023/01/26 02:23:10;;;;;;;37.50;19.85;;;2.60;99.90;;;;;;5012064;28;20193;-79
2023/01/26 02:25:50;;;;;;;31.25;16.55;;;2.60;99.90;;;;;;5013558;28;20174;-79
2023/01/26 02:28:19;;;;;;;38.20;18.65;;;2.60;99.90;;;;;;4996467;28;20231;-80
2023/01/26 02:30:45;;;;;;;32.13;17.27;;;2.60;99.90;;;;;;5012086;28;20673;-79
2023/01/26 02:33:23;;;;;;;34.38;17.95;;;2.60;99.90;;;;;;5029715;28;20161;-78
2023/01/26 02:35:49;;;;;;;36.75;16.05;;;2.60;99.90;;;;;;5012175;28;20173;-79
2023/01/26 02:38:18;;;;;;;30.67;16.83;;;2.70;99.90;;;;;;4995523;28;20177;-79
2023/01/26 02:40:49;;;;;;;30.20;16.17;;;2.70;99.90;;;;;;5011131;28;20677;-79
2023/01/26 02:43:15;;;;;;;37.30;18.85;;;2.70;99.90;;;;;;5011719;28;20185;-79
2023/01/26 02:45:42;;;;;;;33.70;15.53;;;2.70;99.90;;;;;;5011883;28;20177;-79
2023/01/26 02:48:10;;;;;;;32.58;17.38;;;2.70;99.90;;;;;;5016390;28;20185;-80
2023/01/26 02:50:36;;;;;;;33.10;18.00;;;2.80;99.90;;;;;;4995112;28;20255;-80
2023/01/26 02:53:03;;;;;;;38.88;19.10;;;2.80;99.90;;;;;;4995449;28;20618;-80
2023/01/26 02:55:29;;;;;;;33.72;19.20;;;2.80;99.90;;;;;;5011995;28;20292;-81
2023/01/26 02:57:57;;;;;;;36.20;19.15;;;2.80;99.90;;;;;;4995926;28;20174;-81
2023/01/26 03:00:26;;;;;;;31.60;16.67;;;2.80;99.90;;;;;;5011458;28;20198;-81
2023/01/26 03:02:55;;;;;;;34.00;18.15;;;2.80;99.90;;;;;;5012807;28;20174;-80
2023/01/26 03:05:23;;;;;;;31.05;17.42;;;2.80;99.90;;;;;;4983450;28;20193;-80
2023/01/26 03:07:50;;;;;;;39.65;17.60;;;2.80;99.90;;;;;;4998230;28;20170;-80
2023/01/26 03:10:19;;;;;;;32.72;17.88;;;2.80;99.90;;;;;;5012308;28;20209;-80
2023/01/26 03:12:47;;;;;;;28.02;15.77;;;2.80;99.90;;;;;;4980562;28;20170;-80
2023/01/26 03:29:27;;;;;;;30.92;15.70;;;2.70;99.90;;;;;;5011825;28;20216;-80
2023/01/26 03:31:58;;;;;;;28.00;15.15;;;2.70;99.90;;;;;;5012014;28;20174;-80
2023/01/26 03:34:25;;;;;;;35.15;18.45;;;2.70;99.90;;;;;;5014888;28;20177;-80
2023/01/26 03:36:50;;;;;;;34.50;16.77;;;2.70;99.90;;;;;;5015962;28;20204;-80
2023/01/26 03:56:17;;;;;;;24.45;14.18;;;2.80;99.90;;;;;;4998911;28;20173;-80
2023/01/26 03:58:56;;;;;;;34.08;15.75;;;2.80;99.90;;;;;;5015102;28;20688;-81
2023/01/26 04:01:26;;;;;;;32.45;17.23;;;2.80;99.90;;;;;;4999295;28;20228;-79
2023/01/26 04:09:28;;;;;;;28.48;15.10;;;2.80;99.90;;;;;;5014110;28;20204;-79
2023/01/26 04:11:54;;;;;;;24.67;14.55;;;2.80;99.90;;;;;;5014940;28;20174;-79
2023/01/26 04:22:42;;;;;;;27.52;14.45;;;2.80;99.90;;;;;;4998158;28;20661;-79
2023/01/26 04:25:14;;;;;;;24.67;14.23;;;2.80;99.90;;;;;;5014689;28;20649;-79
2023/01/26 04:27:41;;;;;;;21.98;14.43;;;2.80;99.90;;;;;;4998557;28;20178;-79
2023/01/26 04:30:10;;;;;;;27.67;14.50;;;2.80;99.90;;;;;;4997535;28;20208;-78
2023/01/26 04:32:36;;;;;;;26.55;14.35;;;2.80;99.90;;;;;;5014716;28;20173;-79
2023/01/26 04:35:03;;;;;;;23.33;12.02;;;2.80;99.90;;;;;;5014843;28;20557;-79
2023/01/26 04:37:31;;;;;;;25.83;13.32;;;2.80;99.90;;;;;;4998151;28;20174;-79
2023/01/26 04:39:57;;;;;;;32.78;14.68;;;2.80;99.90;;;;;;5001635;28;20185;-79
2023/01/26 04:42:23;;;;;;;29.80;14.90;;;2.80;99.90;;;;;;4997724;28;20166;-79
2023/01/26 04:44:53;;;;;;;28.25;15.07;;;2.80;99.90;;;;;;5012647;28;20568;-78
2023/01/26 04:47:20;;;;;;;24.38;15.88;;;2.80;99.90;;;;;;4997379;28;20268;-79
2023/01/26 04:49:46;;;;;;;22.52;12.90;;;2.80;99.90;;;;;;5013927;28;20765;-79
2023/01/26 04:52:15;;;;;;;30.13;15.68;;;2.80;99.90;;;;;;5014906;28;20673;-79
2023/01/26 04:54:41;;;;;;;23.48;14.07;;;2.70;99.90;;;;;;4998860;28;20290;-79
2023/01/26 04:57:08;;;;;;;18.42;12.63;;;2.70;99.90;;;;;;5015008;28;20182;-80
2023/01/26 04:59:35;;;;;;;21.23;13.00;;;2.70;99.90;;;;;;4997535;28;20178;-80
2023/01/26 05:02:01;;;;;;;27.23;14.57;;;2.70;99.90;;;;;;5014201;28;20327;-79
2023/01/26 05:04:27;;;;;;;27.87;12.10;;;2.70;99.90;;;;;;4997519;28;20276;-79
2023/01/26 05:06:53;;;;;;;20.40;13.47;;;2.70;99.90;;;;;;5015139;28;20177;-80
2023/01/26 05:09:21;;;;;;;31.20;14.38;;;2.70;99.90;;;;;;5014079;28;20583;-80
2023/01/26 05:12:32;;;;;;;30.27;14.55;;;2.70;99.90;;;;;;5014539;28;20200;-79
2023/01/26 05:15:12;;;;;;;25.83;13.27;;;2.70;99.90;;;;;;5031733;28;20178;-80
2023/01/26 05:17:51;;;;;;;23.92;13.40;;;2.70;99.90;;;;;;5019765;28;20548;-80
2023/01/26 05:20:33;;;;;;;19.77;12.00;;;2.70;99.90;;;;;;4997789;28;20709;-79
2023/01/26 05:23:14;;;;;;;25.80;13.38;;;2.70;99.90;;;;;;4997970;28;20190;-80
2023/01/26 05:26:06;;;;;;;20.30;10.95;;;2.60;99.90;;;;;;5013265;28;20161;-80
2023/01/26 05:28:42;;;;;;;24.50;12.52;;;2.60;99.90;;;;;;4996534;28;20180;-80
2023/01/26 05:31:08;;;;;;;25.60;13.83;;;2.60;99.90;;;;;;5013200;28;20209;-80
2023/01/26 05:33:34;;;;;;;25.98;13.98;;;2.60;99.90;;;;;;4996839;28;20269;-79
2023/01/26 05:36:05;;;;;;;23.27;12.63;;;2.60;99.90;;;;;;5013403;28;20311;-80
2023/01/26 05:38:31;;;;;;;19.70;11.95;;;2.60;99.90;;;;;;4996297;28;20624;-80
2023/01/26 05:40:58;;;;;;;27.60;13.35;;;2.60;99.90;;;;;;5013353;28;20281;-80
2023/01/26 05:43:24;;;;;;;19.45;11.90;;;2.60;99.90;;;;;;4996302;28;20189;-80
2023/01/26 05:46:10;;;;;;;24.00;13.02;;;2.60;99.90;;;;;;4999556;28;20189;-80
2023/01/26 05:48:39;;;;;;;22.88;10.77;;;2.60;99.90;;;;;;5012570;28;20542;-80
2023/01/26 05:51:05;;;;;;;24.20;11.80;;;2.60;99.90;;;;;;4996984;28;20209;-80
2023/01/26 05:53:33;;;;;;;22.02;12.50;;;2.60;99.90;;;;;;5014237;28;20173;-81
2023/01/26 05:55:58;;;;;;;25.47;13.00;;;2.60;99.90;;;;;;5032465;28;20256;-80
2023/01/26 05:58:26;;;;;;;23.20;13.10;;;2.70;99.90;;;;;;5013451;28;20177;-80
2023/01/26 06:01:03;;;;;;;24.15;13.65;;;2.70;99.90;;;;;;5012953;28;20613;-80
2023/01/26 06:03:31;;;;;;;25.05;14.02;;;2.70;99.90;;;;;;5012897;28;20188;-81
2023/01/26 06:05:56;;;;;;;28.37;13.83;;;2.70;99.90;;;;;;4996349;28;20178;-81
2023/01/26 06:08:54;;;;;;;26.83;13.90;;;2.70;99.90;;;;;;4975451;28;20597;-80
2023/01/26 06:11:32;;;;;;;24.70;14.55;;;2.80;99.90;;;;;;5011029;28;20209;-80
2023/01/26 06:14:06;;;;;;;22.20;12.52;;;2.80;99.90;;;;;;4993665;28;20166;-80
2023/01/26 06:16:32;;;;;;;23.17;14.50;;;2.80;99.90;;;;;;4993299;28;20342;-81
2023/01/26 06:18:58;;;;;;;25.90;14.65;;;2.80;99.90;;;;;;4998847;28;20585;-81
2023/01/26 06:21:25;;;;;;;23.50;13.32;;;2.80;99.90;;;;;;4981594;28;20285;-80
2023/01/26 06:23:51;;;;;;;28.15;13.90;;;2.80;99.90;;;;;;4993277;28;20858;-80
2023/01/26 06:26:17;;;;;;;23.53;13.07;;;2.80;99.90;;;;;;5009751;28;20174;-80
2023/01/26 06:28:44;;;;;;;28.85;15.55;;;2.80;99.90;;;;;;4993750;28;20688;-80
2023/01/26 06:31:10;;;;;;;25.40;14.30;;;2.80;99.90;;;;;;4980387;28;20636;-79
2023/01/26 06:33:37;;;;;;;27.80;14.68;;;2.80;99.90;;;;;;4995085;28;20181;-80
2023/01/26 06:36:08;;;;;;;28.98;14.27;;;2.70;99.90;;;;;;4994446;28;20174;-79
2023/01/26 06:38:35;;;;;;;27.05;13.48;;;2.70;99.90;;;;;;4976794;28;20181;-80
2023/01/26 06:41:02;;;;;;;27.45;15.00;;;2.70;99.90;;;;;;4992708;28;20277;-80
2023/01/26 06:43:30;;;;;;;34.97;15.77;;;2.70;99.90;;;;;;4992551;28;20210;-80
2023/01/26 06:45:58;;;;;;;31.60;15.65;;;2.70;99.90;;;;;;5013931;28;20178;-79
2023/01/26 06:48:25;;;;;;;24.80;14.80;;;2.70;99.90;;;;;;4993430;28;20526;-80
2023/01/26 06:50:52;;;;;;;28.05;15.27;;;2.70;99.90;;;;;;5009775;28;20202;-80
2023/01/26 06:53:29;;;;;;;30.33;15.38;;;2.70;99.90;;;;;;4977182;28;20171;-79
2023/01/26 06:56:15;;;;;;;28.00;16.50;;;2.70;99.90;;;;;;5009139;28;20182;-79
2023/01/26 06:59:04;;;;;;;28.05;15.35;;;2.70;99.90;;;;;;4976300;28;20260;-80
2023/01/26 07:01:56;;;;;;;28.40;14.77;;;2.70;99.90;;;;;;5004866;28;20181;-80
2023/01/26 07:04:25;;;;;;;28.60;15.50;;;2.70;99.90;;;;;;5012235;28;20192;-79
2023/01/26 07:06:51;;;;;;;33.95;19.48;;;2.70;99.90;;;;;;5023573;28;20548;-80
2023/01/26 07:09:17;;;;;;;35.30;16.00;;;2.70;99.90;;;;;;5030508;28;20232;-80
2023/01/26 07:11:42;;;;;;;31.97;16.20;;;2.70;99.90;;;;;;5027912;28;20196;-80
2023/01/26 07:14:08;;;;;;;28.63;16.40;;;2.70;99.90;;;;;;5012030;28;20264;-79
2023/01/26 07:16:34;;;;;;;23.67;14.97;;;2.70;99.90;;;;;;5029931;28;20174;-79
2023/01/26 07:19:01;;;;;;;33.10;16.52;;;2.70;99.90;;;;;;5011779;28;20663;-80
2023/01/26 07:21:27;;;;;;;29.52;14.27;;;2.70;99.90;;;;;;5029454;28;20289;-79
2023/01/26 07:23:54;;;;;;;27.37;15.23;;;2.70;99.90;;;;;;5011683;28;20264;-81
2023/01/26 07:26:20;;;;;;;27.58;15.30;;;2.80;99.90;;;;;;5030384;28;20185;-81
2023/01/26 07:28:46;;;;;;;26.60;13.13;;;2.80;99.90;;;;;;5029306;28;20781;-81
2023/01/26 07:31:12;;;;;;;21.90;12.13;;;2.80;99.90;;;;;;5011823;28;20745;-80
2023/01/26 07:33:38;;;;;;;26.40;13.20;;;2.80;99.90;;;;;;5011885;28;20178;-80
2023/01/26 07:36:04;;;;;;;23.83;12.88;;;2.80;99.90;;;;;;5011455;28;20174;-80
2023/01/26 07:38:31;;;;;;;21.55;12.90;;;2.80;99.90;;;;;;5029072;28;20283;-80
2023/01/26 07:40:56;;;;;;;20.73;12.00;;;2.80;99.90;;;;;;5029457;28;20194;-81
2023/01/26 07:43:22;;;;;;;20.33;12.30;;;2.80;99.90;;;;;;5012559;28;20182;-80
2023/01/26 07:45:53;;;;;;;26.35;14.85;;;2.90;99.90;;;;;;4998412;28;20268;-80
2023/01/26 07:48:20;;;;;;;19.67;12.13;;;2.90;99.90;;;;;;5030187;28;20196;-80
2023/01/26 07:50:47;;;;;;;21.48;13.05;;;2.90;99.90;;;;;;5011115;28;20209;-79
2023/01/26 07:53:18;;;;;;;21.00;11.30;;;2.90;99.90;;;;;;4995520;28;20177;-80
2023/01/26 07:55:44;;;;;;;20.48;12.77;;;3.00;99.90;;;;;;5022157;28;20182;-80
2023/01/26 07:58:11;;;;;;;20.40;12.02;;;3.00;99.90;;;;;;5029111;28;20174;-80
2023/01/26 08:00:37;;;;;;;21.70;12.23;;;3.00;99.90;;;;;;5025926;28;20202;-79
2023/01/26 08:03:03;;;;;;;23.30;11.50;;;3.00;99.90;;;;;;5024782;28;20200;-81
2023/01/26 08:05:30;;;;;;;20.13;11.10;;;3.00;99.90;;;;;;5015854;28;20174;-81
2023/01/26 08:07:59;;;;;;;22.13;13.50;;;3.10;99.90;;;;;;5012758;28;20615;-81
2023/01/26 08:10:26;;;;;;;23.92;15.23;;;3.10;99.90;;;;;;5012048;28;20263;-81
2023/01/26 08:12:52;;;;;;;26.42;12.80;;;3.10;99.90;;;;;;5012756;28;20717;-81
2023/01/26 08:15:18;;;;;;;22.13;12.60;;;3.10;99.90;;;;;;5012923;28;20165;-81
2023/01/26 08:17:43;;;;;;;22.47;12.27;;;3.20;99.90;;;;;;5030529;28;20688;-81
2023/01/26 08:20:10;;;;;;;22.33;11.10;;;3.20;99.90;;;;;;4998645;28;20612;-85
2023/01/26 08:22:38;;;;;;;20.85;12.05;;;3.20;99.90;;;;;;5036065;28;20265;-81
2023/01/26 08:25:04;;;;;;;20.83;10.65;;;3.20;99.90;;;;;;5035286;28;20256;-79
2023/01/26 08:27:30;;;;;;;23.48;13.02;;;3.30;99.90;;;;;;5034163;28;20177;-80
2023/01/26 08:29:56;;;;;;;21.30;12.57;;;3.30;99.90;;;;;;5032442;28;20217;-79
2023/01/26 08:32:24;;;;;;;22.13;13.45;;;3.30;99.90;;;;;;5015110;28;20747;-79
2023/01/26 08:34:50;;;;;;;23.70;13.10;;;3.40;99.90;;;;;;5032685;28;20261;-80
2023/01/26 08:37:16;;;;;;;23.53;12.27;;;3.40;99.90;;;;;;5032928;28;20645;-82
2023/01/26 08:39:41;;;;;;;20.23;11.53;;;3.40;99.90;;;;;;5033493;28;20209;-82
2023/01/26 08:42:08;;;;;;;25.33;12.57;;;3.40;99.90;;;;;;5014309;28;20744;-80
2023/01/26 08:44:34;;;;;;;20.67;12.17;;;3.50;99.90;;;;;;5027476;28;20260;-80
2023/01/26 08:46:59;;;;;;;22.07;12.80;;;3.50;99.90;;;;;;5034534;28;20910;-80
2023/01/26 08:49:25;;;;;;;23.10;13.67;;;3.50;99.90;;;;;;5032054;28;20209;-81
2023/01/26 08:51:51;;;;;;;21.87;12.50;;;3.50;99.90;;;;;;5035173;28;20174;-82
2023/01/26 08:54:17;;;;;;;25.30;12.90;;;3.50;99.90;;;;;;5016317;28;20629;-82
2023/01/26 08:56:42;;;;;;;20.30;11.50;;;3.50;99.90;;;;;;4998984;28;20580;-83
2023/01/26 08:59:08;;;;;;;21.00;11.40;;;3.50;99.90;;;;;;5034105;28;20174;-83
2023/01/26 09:01:34;;;;;;;21.70;11.30;;;3.50;99.90;;;;;;5035395;28;20196;-80
2023/01/26 09:04:00;;;;;;;16.77;10.57;;;3.60;99.90;;;;;;5039105;28;20589;-80
2023/01/26 09:06:27;;;;;;;18.60;12.65;;;3.60;99.90;;;;;;5047418;28;20197;-84
2023/01/26 09:08:52;;;;;;;25.27;12.82;;;3.60;99.90;;;;;;5045129;28;20188;-82
2023/01/26 09:11:18;;;;;;;21.07;10.93;;;3.60;99.90;;;;;;5023047;28;20296;-81
2023/01/26 09:13:50;;;;;;;26.80;14.83;;;3.60;99.90;;;;;;5038485;28;20170;-81
2023/01/26 09:16:19;;;;;;;28.70;14.82;;;3.60;99.90;;;;;;5037461;28;20584;-79
2023/01/26 09:18:51;;;;;;;19.63;12.18;;;3.60;99.90;;;;;;5000184;28;20634;-79
2023/01/26 09:21:18;;;;;;;28.48;15.02;;;3.60;99.90;;;;;;5033632;28;20224;-80
2023/01/26 09:23:43;;;;;;;21.75;12.52;;;3.60;99.90;;;;;;5031713;28;20170;-79
2023/01/26 09:26:10;;;;;;;21.47;11.80;;;3.60;99.90;;;;;;5013112;28;20181;-79
2023/01/26 09:28:36;;;;;;;21.50;12.15;;;3.60;99.90;;;;;;5029837;28;20591;-77
2023/01/26 09:31:07;;;;;;;19.93;10.97;;;3.60;99.90;;;;;;5028849;28;20206;-80
2023/01/26 09:33:33;;;;;;;24.38;12.45;;;3.70;99.90;;;;;;5031361;28;20627;-80
2023/01/26 09:36:04;;;;;;;21.95;12.60;;;3.70;99.90;;;;;;5013383;28;20169;-79
2023/01/26 09:38:30;;;;;;;24.77;12.23;;;3.70;99.90;;;;;;5035191;28;20170;-80
2023/01/26 09:41:18;;;;;;;29.03;14.90;;;3.80;99.90;;;;;;5031074;28;20204;-79
2023/01/26 09:43:46;;;;;;;21.30;12.60;;;3.80;99.90;;;;;;5030920;28;20568;-77
2023/01/26 09:46:39;;;;;;;20.13;11.60;;;3.80;99.90;;;;;;5013133;28;20585;-79
2023/01/26 09:49:06;;;;;;;28.25;15.15;;;3.90;99.90;;;;;;5030383;28;20169;-78
2023/01/26 09:51:39;;;;;;;24.27;12.90;;;3.90;99.90;;;;;;5006029;28;20209;-79
2023/01/26 09:54:27;;;;;;;22.02;12.68;;;3.90;99.90;;;;;;5021111;28;20169;-79
2023/01/26 09:56:54;;;;;;;26.42;13.65;;;3.90;99.90;;;;;;5029372;28;20177;-79
2023/01/26 09:59:40;;;;;;;20.52;12.13;;;4.00;99.90;;;;;;5028336;28;20178;-79
2023/01/26 10:02:19;;;;;;;22.88;12.40;;;4.00;99.90;;;;;;5024975;28;20181;-79
2023/01/26 10:04:51;;;;;;;24.40;13.82;;;4.00;99.90;;;;;;5003390;28;20324;-79
2023/01/26 10:07:17;;;;;;;30.40;14.23;;;4.00;99.90;;;;;;5021278;28;20177;-78
2023/01/26 10:09:51;;;;;;;29.20;13.80;;;4.00;99.90;;;;;;5028725;28;20209;-78
2023/01/26 10:12:30;;;;;;;29.30;15.30;;;4.00;99.90;;;;;;5029593;28;20170;-78
2023/01/26 10:15:15;;;;;;;25.45;14.63;;;4.00;99.90;;;;;;5033564;28;20200;-78
2023/01/26 10:17:46;;;;;;;26.92;13.82;;;4.00;99.90;;;;;;5030503;28;20170;-78
2023/01/26 10:20:36;;;;;;;26.52;14.48;;;4.00;99.90;;;;;;5024556;28;20616;-78
2023/01/26 10:23:17;;;;;;;25.30;14.32;;;4.00;99.90;;;;;;5024407;28;20169;-79
2023/01/26 10:25:45;;;;;;;31.98;14.23;;;4.00;99.90;;;;;;5001020;28;20170;-79
2023/01/26 10:28:15;;;;;;;27.65;15.10;;;4.00;99.90;;;;;;5020977;28;20180;-79
2023/01/26 10:30:43;;;;;;;29.67;15.93;;;4.00;99.90;;;;;;5029621;28;20271;-80
2023/01/26 10:33:19;;;;;;;31.00;15.35;;;4.00;99.90;;;;;;5019793;28;20308;-79
2023/01/26 10:35:46;;;;;;;30.67;15.43;;;4.00;99.90;;;;;;5029732;28;20248;-80
2023/01/26 10:38:34;;;;;;;34.90;14.98;;;4.10;99.90;;;;;;5030173;28;20654;-78
2023/01/26 10:41:04;;;;;;;28.45;13.98;;;4.10;99.90;;;;;;5026782;28;20189;-79
2023/01/26 10:43:35;;;;;;;28.75;14.48;;;4.10;99.90;;;;;;5023613;28;20213;-79
2023/01/26 10:46:02;;;;;;;26.63;14.20;;;4.20;99.90;;;;;;5012618;28;20179;-79
2023/01/26 10:48:28;;;;;;;28.38;13.65;;;4.20;99.90;;;;;;5027357;28;20197;-79
2023/01/26 10:51:12;;;;;;;29.93;14.53;;;4.20;99.90;;;;;;5019275;28;20637;-80
2023/01/26 10:53:38;;;;;;;24.60;14.90;;;4.20;99.90;;;;;;5031007;28;20946;-80
2023/01/26 10:56:12;;;;;;;29.30;14.80;;;4.30;99.90;;;;;;5029559;28;20173;-79
2023/01/26 10:58:48;;;;;;;32.00;14.15;;;4.30;99.90;;;;;;5011255;28;20587;-79
2023/01/26 11:01:17;;;;;;;29.50;15.25;;;4.30;99.90;;;;;;5011429;28;20227;-80
2023/01/26 11:04:03;;;;;;;30.45;17.27;;;4.40;99.90;;;;;;5030598;28;20271;-81
2023/01/26 11:06:29;;;;;;;34.70;17.90;;;4.40;99.90;;;;;;5041741;28;20196;-79
2023/01/26 11:09:09;;;;;;;28.88;15.13;;;4.50;99.90;;;;;;5035365;28;20169;-79
2023/01/26 11:11:35;;;;;;;27.20;15.38;;;4.50;99.90;;;;;;5041416;28;20250;-80
2023/01/26 11:14:17;;;;;;;29.80;14.20;;;4.50;99.90;;;;;;5023838;28;20335;-79
2023/01/26 11:17:06;;;;;;;29.80;15.00;;;4.50;99.90;;;;;;5025027;28;20609;-79
2023/01/26 11:19:44;;;;;;;29.40;16.50;;;4.50;99.90;;;;;;5023057;28;20220;-78
2023/01/26 11:22:43;;;;;;;37.35;19.13;;;4.50;99.90;;;;;;5015732;28;20271;-79
2023/01/26 11:25:20;;;;;;;34.00;18.25;;;4.50;99.90;;;;;;4978356;28;20193;-79
2023/01/26 11:28:01;;;;;;;38.45;18.98;;;4.50;99.90;;;;;;5028547;28;20208;-80
2023/01/26 11:31:04;;;;;;;26.88;14.75;;;4.50;99.90;;;;;;5041881;28;20224;-80
2023/01/26 11:34:08;;;;;;;31.38;17.17;;;4.50;99.90;;;;;;5048926;28;20181;-80
2023/01/26 11:36:42;;;;;;;28.58;15.80;;;4.50;99.90;;;;;;5048942;28;20172;-81
2023/01/26 11:39:20;;;;;;;27.10;14.98;;;4.50;99.90;;;;;;5048397;28;20181;-80
2023/01/26 11:42:12;;;;;;;27.13;14.73;;;4.50;99.90;;;;;;5020906;28;20921;-80
2023/01/26 11:44:59;;;;;;;29.50;15.80;;;4.50;99.90;;;;;;5025982;28;20642;-81
2023/01/26 11:47:48;;;;;;;31.92;16.10;;;4.60;99.90;;;;;;5025380;28;20178;-80
2023/01/26 11:50:22;;;;;;;26.52;14.32;;;4.60;99.90;;;;;;5024169;28;20193;-79
2023/01/26 11:52:54;;;;;;;25.35;14.88;;;4.60;99.90;;;;;;5009876;28;20197;-79
2023/01/26 11:55:41;;;;;;;25.38;14.25;;;4.60;99.90;;;;;;5032591;28;20174;-79
2023/01/26 11:58:32;;;;;;;24.17;12.75;;;4.60;99.90;;;;;;5016358;28;20185;-80
2023/01/26 12:01:02;;;;;;;25.35;14.55;;;4.60;99.90;;;;;;5012030;28;20291;-81
2023/01/26 12:03:49;;;;;;;23.80;13.60;;;4.60;99.90;;;;;;5034057;28;20183;-80
2023/01/26 12:06:20;;;;;;;24.08;13.60;;;4.60;99.90;;;;;;5019790;28;20237;-80
2023/01/26 12:09:10;;;;;;;28.10;15.77;;;4.70;99.90;;;;;;5016874;28;20169;-81
2023/01/26 12:11:45;;;;;;;26.10;14.57;;;4.70;99.90;;;;;;5035285;28;20228;-80
2023/01/26 12:14:49;;;;;;;36.75;19.35;;;4.70;99.90;;;;;;5033822;28;20180;-80
2023/01/26 12:17:29;;;;;;;40.00;18.20;;;4.60;99.90;;;;;;4984208;28;20684;-80
2023/01/26 12:20:32;;;;;;;31.10;17.23;;;4.60;99.90;;;;;;5013683;28;20252;-80
2023/01/26 12:23:07;;;;;;;33.97;17.48;;;4.50;99.90;;;;;;5033244;28;20177;-79
2023/01/26 12:25:38;;;;;;;35.65;17.58;;;4.50;99.90;;;;;;5014451;28;20677;-81
2023/01/26 12:28:18;;;;;;;35.90;17.55;;;4.40;99.90;;;;;;5014935;28;20185;-81
2023/01/26 12:31:06;;;;;;;33.22;15.93;;;4.40;99.90;;;;;;5033022;28;20670;-81
2023/01/26 12:33:34;;;;;;;37.60;17.00;;;4.40;99.90;;;;;;5033651;28;20536;-80
2023/01/26 12:36:21;;;;;;;26.55;14.35;;;4.40;99.90;;;;;;5033591;28;20166;-80
2023/01/26 12:39:15;;;;;;;28.08;14.75;;;4.40;99.90;;;;;;5014910;28;21043;-81
2023/01/26 12:41:40;;;;;;;23.23;13.52;;;4.40;99.90;;;;;;5032374;28;20216;-81
2023/01/26 12:44:26;;;;;;;31.23;16.30;;;4.40;99.90;;;;;;5038107;28;20634;-81
2023/01/26 12:47:29;;;;;;;25.23;14.00;;;4.40;99.90;;;;;;5031985;28;20173;-80
2023/01/26 12:50:13;;;;;;;25.23;15.82;;;4.40;99.90;;;;;;5032568;28;20212;-80
2023/01/26 12:52:50;;;;;;;26.58;15.52;;;4.40;99.90;;;;;;5015211;28;20173;-80
2023/01/26 12:55:18;;;;;;;25.20;13.38;;;4.40;99.90;;;;;;5023715;28;20181;-81
2023/01/26 12:57:53;;;;;;;23.98;14.88;;;4.40;99.90;;;;;;5032824;28;20723;-80
2023/01/26 13:00:31;;;;;;;20.63;12.80;;;4.40;99.90;;;;;;5033075;28;20201;-81
2023/01/26 13:03:14;;;;;;;26.60;14.57;;;4.40;99.90;;;;;;5033157;28;20231;-81
2023/01/26 13:06:17;;;;;;;19.52;12.63;;;4.40;99.90;;;;;;5031322;28;20170;-82
2023/01/26 13:09:18;;;;;;;19.17;11.60;;;4.50;99.90;;;;;;5031164;28;20201;-81
2023/01/26 13:11:49;;;;;;;23.88;12.02;;;4.50;99.90;;;;;;5011040;28;20232;-81
2023/01/26 13:14:32;;;;;;;19.38;12.82;;;4.50;99.90;;;;;;5031528;28;20261;-81
2023/01/26 13:17:16;;;;;;;16.48;9.77;;;4.50;99.90;;;;;;5033228;28;20174;-80
2023/01/26 13:19:42;;;;;;;22.23;10.50;;;4.60;99.90;;;;;;5032662;28;20173;-80
2023/01/26 13:22:22;;;;;;;18.10;9.67;;;4.60;99.90;;;;;;5036599;28;20172;-80
2023/01/26 13:24:54;;;;;;;15.20;10.02;;;4.60;99.90;;;;;;5031187;28;20177;-80
2023/01/26 13:27:38;;;;;;;15.93;9.95;;;4.60;99.90;;;;;;5023030;28;20264;-79
2023/01/26 13:30:28;;;;;;;16.70;10.52;;;4.60;99.90;;;;;;5032129;28;20533;-80
2023/01/26 13:33:11;;;;;;;14.95;9.60;;;4.60;99.90;;;;;;5015816;28;20174;-81
2023/01/26 13:35:37;;;;;;;18.40;10.00;;;4.60;99.90;;;;;;5036608;28;20172;-82
2023/01/26 13:38:28;;;;;;;18.08;9.23;;;4.60;99.90;;;;;;5019068;28;20634;-80
2023/01/26 13:40:54;;;;;;;16.65;8.95;;;4.60;99.90;;;;;;5014997;28;20205;-80
2023/01/26 13:43:39;;;;;;;13.13;8.75;;;4.60;99.90;;;;;;5018565;28;20639;-81
2023/01/26 13:46:25;;;;;;;16.52;9.13;;;4.60;99.90;;;;;;5018941;28;20639;-81
2023/01/26 13:48:53;;;;;;;14.18;7.70;;;4.50;99.90;;;;;;5014499;28;20553;-82
2023/01/26 13:51:26;;;;;;;17.90;11.30;;;4.50;99.90;;;;;;5030621;28;20201;-81